Time,TemperatureF,DewpointF,PressureIn,WindDirection,WindDirectionDegrees,WindSpeedMPH,WindSpeedGustMPH,Humidity,HourlyPrecipIn,Conditions,Clouds,dailyrainin,SoftwareType,DateUTC
2013-04-16 00:04:00,44.6,36.5,30.27,East,90,1.6,1.6,73,0.24,CLR,BKN,0.24,WeatherDisplay:10.37,2013-04-15 22:04:00,
2013-04-16 00:09:00,44.1,36.3,30.27,East,90,2.3,2.3,74,0.24,CLR,BKN,0.24,WeatherDisplay:10.37,2013-04-15 22:09:00,
2013-04-16 00:14:00,43.9,36.5,30.27,SE,135,2.3,2.3,75,0.24,CLR,BKN,0.24,WeatherDisplay:10.37,2013-04-15 22:14:00,
2013-04-16 00:19:00,43.7,36.3,30.27,East,90,2.2,2.2,75,0.24,CLR,BKN,0.24,WeatherDisplay:10.37,2013-04-15 22:19:00,
2013-04-16 00:24:00,43.5,36.1,30.27,ESE,112,2.3,2.3,75,0.24,CLR,BKN,0.24,WeatherDisplay:10.37,2013-04-15 22:24:00,
2013-04-16 00:29:00,43.3,35.9,30.27,ESE,112,1.6,1.6,75,0.24,CLR,BKN,0.24,WeatherDisplay:10.37,2013-04-15 22:29:00,
2013-04-16 00:34:00,43.0,35.6,30.27,East,90,2.2,2.2,75,0.00,CLR,BKN,0.24,WeatherDisplay:10.37,2013-04-15 22:34:00,
2013-04-16 00:39:00,42.8,35.8,30.27,East,90,1.2,0.0,76,0.00,CLR,BKN,0.24,WeatherDisplay:10.37,2013-04-15 22:39:00,
2013-04-16 00:44:00,42.8,36.1,30.27,South,180,1.6,1.6,77,0.00,CLR,BKN,0.24,WeatherDisplay:10.37,2013-04-15 22:44:00,
2013-04-16 00:49:00,42.6,36.2,30.27,South,180,1.6,1.6,78,0.00,CLR,BKN,0.24,WeatherDisplay:10.37,2013-04-15 22:49:00,
2013-04-16 00:54:00,42.4,36.1,30.27,South,180,1.2,0.0,78,0.00,CLR,BKN,0.24,WeatherDisplay:10.37,2013-04-15 22:54:00,
2013-04-16 00:59:00,42.3,35.9,30.27,South,180,1.2,0.0,78,0.00,CLR,BKN,0.24,WeatherDisplay:10.37,2013-04-15 22:59:00,
2013-04-16 01:04:00,42.3,36.2,30.27,South,180,0.0,0.0,79,0.00,CLR,BKN,0.24,WeatherDisplay:10.37,2013-04-15 23:04:00,
2013-04-16 01:09:00,42.3,36.2,30.26,South,180,0.0,0.0,79,0.00,CLR,BKN,0.24,WeatherDisplay:10.37,2013-04-15 23:09:00,
2013-04-16 01:14:00,42.1,36.4,30.27,South,180,1.2,0.0,80,0.00,CLR,BKN,0.24,WeatherDisplay:10.37,2013-04-15 23:14:00,
2013-04-16 01:19:00,42.1,36.4,30.27,South,180,0.0,0.0,80,0.00,CLR,BKN,0.24,WeatherDisplay:10.37,2013-04-15 23:19:00,
2013-04-16 01:24:00,41.9,36.2,30.27,NW,315,2.2,2.2,80,0.00,CLR,BKN,0.24,WeatherDisplay:10.37,2013-04-15 23:24:00,
2013-04-16 01:29:00,41.9,36.2,30.27,NW,315,1.6,1.6,80,0.00,CLR,BKN,0.24,WeatherDisplay:10.37,2013-04-15 23:29:00,
2013-04-16 01:34:00,41.7,36.0,30.27,NW,315,1.2,0.0,80,0.00,CLR,BKN,0.24,WeatherDisplay:10.37,2013-04-15 23:34:00,
2013-04-16 01:39:00,41.7,36.0,30.27,East,90,1.2,0.0,80,0.00,CLR,BKN,0.24,WeatherDisplay:10.37,2013-04-15 23:39:00,
2013-04-16 01:44:00,41.5,35.8,30.27,East,90,1.2,0.0,80,0.00,CLR,BKN,0.24,WeatherDisplay:10.37,2013-04-15 23:44:00,
2013-04-16 01:49:00,41.4,35.7,30.27,East,90,1.2,0.0,80,0.00,CLR,BKN,0.24,WeatherDisplay:10.37,2013-04-15 23:49:00,
2013-04-16 01:54:00,41.2,35.5,30.27,NW,315,1.2,0.0,80,0.00,CLR,BKN,0.24,WeatherDisplay:10.37,2013-04-15 23:54:00,
2013-04-16 01:59:00,41.0,35.6,30.26,East,90,1.6,0.0,81,0.00,CLR,BKN,0.24,WeatherDisplay:10.37,2013-04-15 23:59:00,
2013-04-16 02:04:00,41.0,35.6,30.26,East,90,1.6,1.6,81,0.00,CLR,BKN,0.24,WeatherDisplay:10.37,2013-04-16 00:04:00,
2013-04-16 02:09:00,40.8,35.7,30.26,East,90,1.2,0.0,82,0.00,CLR,BKN,0.24,WeatherDisplay:10.37,2013-04-16 00:09:00,
2013-04-16 02:14:00,40.6,35.6,30.26,East,90,0.0,0.0,82,0.00,CLR,BKN,0.24,WeatherDisplay:10.37,2013-04-16 00:14:00,
2013-04-16 02:19:00,40.3,35.2,30.26,East,90,1.2,0.0,82,0.00,CLR,BKN,0.24,WeatherDisplay:10.37,2013-04-16 00:19:00,
2013-04-16 02:24:00,40.1,35.0,30.26,East,90,1.6,1.6,82,0.00,CLR,BKN,0.24,WeatherDisplay:10.37,2013-04-16 00:24:00,
2013-04-16 02:29:00,39.7,34.7,30.26,East,90,1.6,0.0,82,0.00,CLR,BKN,0.24,WeatherDisplay:10.37,2013-04-16 00:29:00,
2013-04-16 02:34:00,39.6,34.5,30.26,East,90,1.2,0.0,82,0.00,CLR,BKN,0.24,WeatherDisplay:10.37,2013-04-16 00:34:00,
2013-04-16 02:39:00,39.4,34.3,30.26,East,90,1.6,1.6,82,0.00,CLR,BKN,0.24,WeatherDisplay:10.37,2013-04-16 00:39:00,
2013-04-16 02:44:00,39.2,34.2,30.26,NE,45,2.3,2.3,82,0.00,CLR,BKN,0.24,WeatherDisplay:10.37,2013-04-16 00:44:00,
2013-04-16 02:49:00,39.0,34.3,30.26,NE,45,2.3,0.0,83,0.00,CLR,BKN,0.24,WeatherDisplay:10.37,2013-04-16 00:49:00,
2013-04-16 02:54:00,38.8,34.1,30.26,NE,45,1.6,1.6,83,0.00,CLR,BKN,0.24,WeatherDisplay:10.37,2013-04-16 00:54:00,
2013-04-16 02:59:00,38.7,34.2,30.26,NE,45,1.6,1.6,84,0.00,CLR,BKN,0.24,WeatherDisplay:10.37,2013-04-16 00:59:00,
2013-04-16 03:04:00,38.5,34.1,30.26,NE,45,1.2,0.0,84,0.00,CLR,BKN,0.24,WeatherDisplay:10.37,2013-04-16 01:04:00,
2013-04-16 03:09:00,38.3,33.9,30.26,NW,315,1.6,1.6,84,0.00,CLR,BKN,0.24,WeatherDisplay:10.37,2013-04-16 01:09:00,
2013-04-16 03:14:00,38.1,33.7,30.26,NW,315,1.2,0.0,84,0.00,CLR,BKN,0.24,WeatherDisplay:10.37,2013-04-16 01:14:00,
2013-04-16 03:19:00,38.1,34.0,30.26,NW,315,1.2,0.0,85,0.00,CLR,BKN,0.24,WeatherDisplay:10.37,2013-04-16 01:19:00,
2013-04-16 03:24:00,37.9,33.8,30.26,NW,315,1.2,1.2,85,0.00,CLR,BKN,0.24,WeatherDisplay:10.37,2013-04-16 01:24:00,
2013-04-16 03:29:00,37.9,33.8,30.26,NW,315,1.2,0.0,85,0.00,CLR,BKN,0.24,WeatherDisplay:10.37,2013-04-16 01:29:00,
2013-04-16 03:34:00,37.8,33.7,30.26,NW,315,1.6,1.6,85,0.00,CLR,BKN,0.24,WeatherDisplay:10.37,2013-04-16 01:34:00,
2013-04-16 03:39:00,37.6,33.5,30.26,NE,45,1.6,1.6,85,0.00,CLR,BKN,0.24,WeatherDisplay:10.37,2013-04-16 01:39:00,
2013-04-16 03:44:00,37.6,33.5,30.26,NE,45,1.2,0.0,85,0.00,CLR,BKN,0.24,WeatherDisplay:10.37,2013-04-16 01:44:00,
2013-04-16 03:49:00,37.4,33.3,30.26,North,0,1.2,0.0,85,0.00,CLR,BKN,0.24,WeatherDisplay:10.37,2013-04-16 01:49:00,
2013-04-16 03:54:00,37.2,31.9,30.26,NE,45,2.3,0.0,81,0.00,CLR,BKN,0.24,WeatherDisplay:10.37,2013-04-16 01:54:00,
2013-04-16 03:59:00,37.2,32.2,30.26,NE,45,1.2,0.0,82,0.00,CLR,BKN,0.24,WeatherDisplay:10.37,2013-04-16 01:59:00,
2013-04-16 04:04:00,37.2,32.2,30.26,NE,45,0.0,0.0,82,0.00,CLR,BKN,0.24,WeatherDisplay:10.37,2013-04-16 02:04:00,
2013-04-16 04:09:00,37.0,32.1,30.26,NE,45,1.6,1.6,82,0.00,CLR,BKN,0.24,WeatherDisplay:10.37,2013-04-16 02:09:00,
2013-04-16 04:14:00,36.9,31.9,30.26,NE,45,3.1,3.1,82,0.00,CLR,BKN,0.24,WeatherDisplay:10.37,2013-04-16 02:14:00,
2013-04-16 04:19:00,36.7,31.7,30.26,East,90,2.3,2.3,82,0.00,CLR,BKN,0.24,WeatherDisplay:10.37,2013-04-16 02:19:00,
2013-04-16 04:24:00,36.5,31.5,30.26,NE,45,1.6,0.0,82,0.00,CLR,BKN,0.24,WeatherDisplay:10.37,2013-04-16 02:24:00,
2013-04-16 04:29:00,36.3,31.4,30.26,NE,45,1.2,0.0,82,0.00,CLR,BKN,0.24,WeatherDisplay:10.37,2013-04-16 02:29:00,
2013-04-16 04:34:00,36.1,31.2,30.26,NE,45,1.6,1.6,82,0.00,CLR,BKN,0.24,WeatherDisplay:10.37,2013-04-16 02:34:00,
2013-04-16 04:39:00,36.1,31.2,30.26,SE,135,1.6,1.6,82,0.00,CLR,BKN,0.24,WeatherDisplay:10.37,2013-04-16 02:39:00,
2013-04-16 04:44:00,36.0,31.3,30.26,East,90,1.6,1.6,83,0.00,CLR,BKN,0.24,WeatherDisplay:10.37,2013-04-16 02:44:00,
2013-04-16 04:49:00,35.8,31.1,30.26,East,90,2.3,2.3,83,0.00,CLR,BKN,0.24,WeatherDisplay:10.37,2013-04-16 02:49:00,
2013-04-16 04:54:00,35.8,31.1,30.26,East,90,3.5,3.5,83,0.00,CLR,BKN,0.24,WeatherDisplay:10.37,2013-04-16 02:54:00,
2013-04-16 04:59:00,35.6,30.9,30.26,East,90,2.3,2.3,83,0.00,CLR,BKN,0.24,WeatherDisplay:10.37,2013-04-16 02:59:00,
2013-04-16 05:04:00,35.6,30.9,30.26,East,90,2.3,2.3,83,0.00,CLR,BKN,0.24,WeatherDisplay:10.37,2013-04-16 03:04:00,
2013-04-16 05:09:00,35.4,31.1,30.26,East,90,2.3,2.3,84,0.00,CLR,BKN,0.24,WeatherDisplay:10.37,2013-04-16 03:09:00,
2013-04-16 05:14:00,35.4,31.1,30.26,East,90,1.6,1.6,84,0.00,CLR,BKN,0.24,WeatherDisplay:10.37,2013-04-16 03:14:00,
2013-04-16 05:19:00,35.4,31.1,30.26,East,90,1.6,1.6,84,0.00,CLR,BKN,0.24,WeatherDisplay:10.37,2013-04-16 03:19:00,
2013-04-16 05:24:00,35.2,30.9,30.26,East,90,2.3,2.3,84,0.00,CLR,BKN,0.24,WeatherDisplay:10.37,2013-04-16 03:24:00,
2013-04-16 05:29:00,35.1,30.7,30.26,NE,45,3.5,3.5,84,0.00,CLR,BKN,0.24,WeatherDisplay:10.37,2013-04-16 03:29:00,
2013-04-16 05:34:00,35.1,30.7,30.26,NE,45,1.6,1.6,84,0.00,CLR,BKN,0.24,WeatherDisplay:10.37,2013-04-16 03:34:00,
2013-04-16 05:39:00,35.2,30.9,30.27,East,90,2.3,2.3,84,0.00,CLR,BKN,0.24,WeatherDisplay:10.37,2013-04-16 03:39:00,
2013-04-16 05:44:00,35.2,31.2,30.27,East,90,2.3,2.3,85,0.00,CLR,BKN,0.24,WeatherDisplay:10.37,2013-04-16 03:44:00,
2013-04-16 05:49:00,35.2,31.2,30.26,ENE,68,2.3,2.3,85,0.00,CLR,BKN,0.24,WeatherDisplay:10.37,2013-04-16 03:49:00,
2013-04-16 05:54:00,35.1,31.0,30.26,NE,45,3.1,3.1,85,0.00,CLR,BKN,0.24,WeatherDisplay:10.37,2013-04-16 03:54:00,
2013-04-16 05:59:00,35.1,31.0,30.26,East,90,3.5,0.0,85,0.00,CLR,BKN,0.24,WeatherDisplay:10.37,2013-04-16 03:59:00,
2013-04-16 06:00:00,35.1,31.0,30.26,East,89,0.0,3.0,85,0.00,CLR,BKN,0.24,WeatherDisplay:10.37,2013-04-16 04:00:00,
2013-04-16 06:01:00,35.1,31.0,30.27,East,90,1.6,0.0,85,0.00,CLR,BKN,0.24,WeatherDisplay:10.37,2013-04-16 04:01:00,
2013-04-16 06:02:00,35.1,31.0,30.27,East,90,1.6,0.0,85,0.00,CLR,BKN,0.24,WeatherDisplay:10.37,2013-04-16 04:02:00,
2013-04-16 06:03:00,35.1,31.0,30.27,East,90,1.6,0.0,85,0.00,CLR,BKN,0.24,WeatherDisplay:10.37,2013-04-16 04:03:00,
2013-04-16 06:08:00,35.1,31.0,30.27,NE,45,3.5,3.5,85,0.00,CLR,BKN,0.24,WeatherDisplay:10.37,2013-04-16 04:08:00,
2013-04-16 06:13:00,34.9,30.8,30.27,East,90,3.5,3.5,85,0.00,CLR,BKN,0.24,WeatherDisplay:10.37,2013-04-16 04:13:00,
2013-04-16 06:18:00,34.9,30.8,30.27,NE,45,0.0,0.0,85,0.00,CLR,BKN,0.24,WeatherDisplay:10.37,2013-04-16 04:18:00,
2013-04-16 06:23:00,35.1,31.0,30.27,NE,45,1.2,0.0,85,0.00,CLR,BKN,0.24,WeatherDisplay:10.37,2013-04-16 04:23:00,
2013-04-16 06:28:00,35.1,31.0,30.27,NE,45,1.6,1.6,85,0.00,CLR,BKN,0.24,WeatherDisplay:10.37,2013-04-16 04:28:00,
2013-04-16 06:33:00,35.2,31.5,30.27,NE,45,2.3,2.3,86,0.00,CLR,BKN,0.24,WeatherDisplay:10.37,2013-04-16 04:33:00,
2013-04-16 06:38:00,35.2,31.5,30.27,East,90,2.3,2.3,86,0.00,CLR,BKN,0.24,WeatherDisplay:10.37,2013-04-16 04:38:00,
2013-04-16 06:43:00,35.6,31.5,30.27,East,90,1.6,1.6,85,0.00,CLR,BKN,0.24,WeatherDisplay:10.37,2013-04-16 04:43:00,
2013-04-16 06:48:00,35.6,31.5,30.28,East,90,1.2,0.0,85,0.00,CLR,BKN,0.24,WeatherDisplay:10.37,2013-04-16 04:48:00,
2013-04-16 06:53:00,35.8,31.7,30.28,NE,45,1.6,0.0,85,0.00,CLR,BKN,0.24,WeatherDisplay:10.37,2013-04-16 04:53:00,
2013-04-16 06:58:00,36.0,32.2,30.28,East,90,3.5,3.5,86,0.00,CLR,BKN,0.24,WeatherDisplay:10.37,2013-04-16 04:58:00,
2013-04-16 07:00:00,64.0,39.2,30.28,SE,137,3.0,5.0,40,0.00,CLR,BKN,0.00,WeatherDisplay:10.37,2013-04-16 05:00:00,
2013-04-16 07:03:00,36.3,32.5,30.28,NE,45,1.2,0.0,86,0.00,CLR,BKN,0.24,WeatherDisplay:10.37,2013-04-16 05:03:00,
2013-04-16 07:05:00,64.0,39.2,30.28,ESE,116,3.0,5.0,40,0.00,CLR,BKN,0.00,WeatherDisplay:10.37,2013-04-16 05:05:00,
2013-04-16 07:08:00,36.7,32.9,30.27,North,0,1.2,0.0,86,0.00,CLR,BKN,0.24,WeatherDisplay:10.37,2013-04-16 05:08:00,
2013-04-16 07:10:00,64.0,39.2,30.28,East,90,3.0,5.0,40,0.00,CLR,BKN,0.00,WeatherDisplay:10.37,2013-04-16 05:10:00,
2013-04-16 07:13:00,37.0,33.2,30.28,North,0,1.2,0.0,86,0.00,CLR,BKN,0.24,WeatherDisplay:10.37,2013-04-16 05:13:00,
2013-04-16 07:15:00,64.0,39.2,30.28,East,90,3.0,5.0,40,0.00,CLR,BKN,0.00,WeatherDisplay:10.37,2013-04-16 05:15:00,
2013-04-16 07:18:00,37.4,35.0,30.27,North,0,1.2,0.0,91,0.00,CLR,BKN,0.24,WeatherDisplay:10.37,2013-04-16 05:18:00,
2013-04-16 07:20:00,64.0,39.2,30.28,East,90,3.0,5.0,40,0.00,CLR,BKN,0.00,WeatherDisplay:10.37,2013-04-16 05:20:00,
2013-04-16 07:23:00,37.9,35.5,30.28,North,0,0.0,0.0,91,0.00,CLR,BKN,0.24,WeatherDisplay:10.37,2013-04-16 05:23:00,
2013-04-16 07:25:00,64.0,39.2,30.28,East,90,3.0,5.0,40,0.00,CLR,BKN,0.00,WeatherDisplay:10.37,2013-04-16 05:25:00,
2013-04-16 07:28:00,38.7,36.3,30.28,North,0,1.2,0.0,91,0.00,CLR,BKN,0.24,WeatherDisplay:10.37,2013-04-16 05:28:00,
2013-04-16 07:30:00,64.4,38.2,30.28,East,90,5.0,6.0,38,0.00,CLR,BKN,0.00,WeatherDisplay:10.37,2013-04-16 05:30:00,
2013-04-16 07:33:00,39.9,37.5,30.28,NE,45,3.5,3.5,91,0.00,CLR,BKN,0.24,WeatherDisplay:10.37,2013-04-16 05:33:00,
2013-04-16 07:35:00,64.4,38.2,30.28,East,90,5.0,6.0,38,0.00,CLR,BKN,0.00,WeatherDisplay:10.37,2013-04-16 05:35:00,
2013-04-16 07:38:00,41.0,38.0,30.28,NE,45,3.5,3.5,89,0.00,CLR,BKN,0.24,WeatherDisplay:10.37,2013-04-16 05:38:00,
2013-04-16 07:40:00,64.4,38.2,30.28,East,90,5.0,6.0,38,0.00,CLR,BKN,0.00,WeatherDisplay:10.37,2013-04-16 05:40:00,
2013-04-16 07:43:00,42.1,39.1,30.28,East,90,3.1,3.1,89,0.00,CLR,BKN,0.24,WeatherDisplay:10.37,2013-04-16 05:43:00,
2013-04-16 07:45:00,65.5,38.5,30.28,East,83,5.0,6.0,37,0.00,CLR,BKN,0.00,WeatherDisplay:10.37,2013-04-16 05:45:00,
2013-04-16 07:48:00,42.8,38.9,30.29,North,0,2.3,0.0,86,0.00,CLR,BKN,0.24,WeatherDisplay:10.37,2013-04-16 05:48:00,
2013-04-16 07:50:00,65.5,38.5,30.28,NW,307,5.0,5.0,37,0.00,CLR,BKN,0.00,WeatherDisplay:10.37,2013-04-16 05:50:00,
2013-04-16 07:53:00,43.5,39.6,30.28,North,0,1.6,1.6,86,0.00,CLR,BKN,0.24,WeatherDisplay:10.37,2013-04-16 05:53:00,
2013-04-16 07:55:00,65.5,38.5,30.28,WNW,292,5.0,5.0,37,0.00,CLR,BKN,0.00,WeatherDisplay:10.37,2013-04-16 05:55:00,
2013-04-16 07:58:00,44.4,40.2,30.29,SW,225,3.5,3.5,85,0.00,CLR,BKN,0.24,WeatherDisplay:10.37,2013-04-16 05:58:00,
2013-04-16 08:00:00,65.5,37.8,30.28,WNW,287,3.0,5.0,36,0.00,CLR,BKN,0.00,WeatherDisplay:10.37,2013-04-16 06:00:00,
2013-04-16 08:03:00,45.1,40.0,30.29,North,0,3.5,3.5,82,0.00,RA,BKN,0.00,WeatherDisplay:10.37,2013-04-16 06:03:00,
2013-04-16 08:05:00,65.5,37.8,30.28,SSE,160,3.0,5.0,36,0.00,CLR,BKN,0.00,WeatherDisplay:10.37,2013-04-16 06:05:00,
2013-04-16 08:08:00,46.0,40.2,30.29,WNW,292,3.5,3.5,80,0.00,RA,BKN,0.00,WeatherDisplay:10.37,2013-04-16 06:08:00,
2013-04-16 08:10:00,65.5,37.8,30.28,SE,135,3.0,5.0,36,0.00,CLR,BKN,0.00,WeatherDisplay:10.37,2013-04-16 06:10:00,
2013-04-16 08:13:00,47.1,40.6,30.29,NW,315,3.5,3.5,78,0.00,CLR,BKN,0.00,WeatherDisplay:10.37,2013-04-16 06:13:00,
2013-04-16 08:15:00,66.7,38.2,30.28,SE,135,5.0,6.0,35,0.00,CLR,BKN,0.00,WeatherDisplay:10.37,2013-04-16 06:15:00,
2013-04-16 08:18:00,47.8,41.0,30.29,North,0,4.6,4.6,77,0.00,CLR,BKN,0.00,WeatherDisplay:10.37,2013-04-16 06:18:00,
2013-04-16 08:20:00,66.7,38.2,30.28,SE,135,5.0,6.0,35,0.00,CLR,BKN,0.00,WeatherDisplay:10.37,2013-04-16 06:20:00,
2013-04-16 08:23:00,48.4,40.5,30.29,North,0,4.6,4.6,74,0.00,CLR,BKN,0.00,WeatherDisplay:10.37,2013-04-16 06:23:00,
2013-04-16 08:25:00,66.7,38.2,30.28,SE,135,5.0,6.0,35,0.00,CLR,BKN,0.00,WeatherDisplay:10.37,2013-04-16 06:25:00,
2013-04-16 08:28:00,48.9,40.6,30.29,North,0,4.5,4.5,73,0.00,CLR,BKN,0.00,WeatherDisplay:10.37,2013-04-16 06:28:00,
2013-04-16 08:30:00,67.3,37.9,30.28,SE,137,1.0,6.0,34,0.00,CLR,BKN,0.00,WeatherDisplay:10.37,2013-04-16 06:30:00,
2013-04-16 08:33:00,49.6,41.3,30.29,North,0,3.5,3.5,73,0.00,CLR,BKN,0.00,WeatherDisplay:10.37,2013-04-16 06:33:00,
2013-04-16 08:35:00,67.3,37.9,30.28,SSE,151,1.0,2.0,34,0.00,CLR,BKN,0.00,WeatherDisplay:10.37,2013-04-16 06:35:00,
2013-04-16 08:38:00,50.4,41.7,30.29,North,0,5.4,5.4,72,0.00,CLR,BKN,0.00,WeatherDisplay:10.37,2013-04-16 06:38:00,
2013-04-16 08:40:00,67.3,37.9,30.28,South,180,1.0,2.0,34,0.00,CLR,BKN,0.00,WeatherDisplay:10.37,2013-04-16 06:40:00,
2013-04-16 08:43:00,51.1,41.6,30.29,NW,315,4.6,4.6,70,0.00,CLR,BKN,0.00,WeatherDisplay:10.37,2013-04-16 06:43:00,
2013-04-16 08:45:00,66.7,35.9,30.27,SE,129,6.0,8.0,32,0.00,CLR,BKN,0.00,WeatherDisplay:10.37,2013-04-16 06:45:00,
2013-04-16 08:48:00,52.0,41.7,30.29,NNE,22,4.6,4.6,68,0.00,CLR,BKN,0.00,WeatherDisplay:10.37,2013-04-16 06:48:00,
2013-04-16 08:50:00,66.7,35.9,30.27,East,95,6.0,8.0,32,0.00,CLR,BKN,0.00,WeatherDisplay:10.37,2013-04-16 06:50:00,
2013-04-16 08:53:00,52.5,41.5,30.29,NE,45,5.8,5.8,66,0.00,CLR,BKN,0.00,WeatherDisplay:10.37,2013-04-16 06:53:00,
2013-04-16 08:55:00,66.7,35.9,30.27,East,90,6.0,8.0,32,0.00,CLR,BKN,0.00,WeatherDisplay:10.37,2013-04-16 06:55:00,
2013-04-16 08:58:00,53.2,41.0,30.29,North,0,3.5,3.5,63,0.00,CLR,BKN,0.00,WeatherDisplay:10.37,2013-04-16 06:58:00,
2013-04-16 09:00:00,67.6,37.5,30.27,ESE,104,6.0,8.0,33,0.00,CLR,BKN,0.00,WeatherDisplay:10.37,2013-04-16 07:00:00,
2013-04-16 09:03:00,53.8,40.6,30.29,NE,45,4.5,4.5,61,0.00,CLR,BKN,0.00,WeatherDisplay:10.37,2013-04-16 07:03:00,
2013-04-16 09:05:00,67.6,37.5,30.27,SSE,157,6.0,6.0,33,0.00,CLR,BKN,0.00,WeatherDisplay:10.37,2013-04-16 07:05:00,
2013-04-16 09:08:00,54.5,40.9,30.29,SW,225,3.5,3.5,60,0.00,CLR,BKN,0.00,WeatherDisplay:10.37,2013-04-16 07:08:00,
2013-04-16 09:10:00,67.6,37.5,30.27,South,180,6.0,6.0,33,0.00,CLR,BKN,0.00,WeatherDisplay:10.37,2013-04-16 07:10:00,
2013-04-16 09:13:00,55.4,41.3,30.29,NE,45,4.6,4.6,59,0.00,CLR,BKN,0.00,WeatherDisplay:10.37,2013-04-16 07:13:00,
2013-04-16 09:15:00,68.2,36.4,30.26,South,187,5.0,9.0,31,0.00,CLR,BKN,0.00,WeatherDisplay:10.37,2013-04-16 07:15:00,
2013-04-16 09:18:00,55.8,41.2,30.29,North,0,3.5,3.5,58,0.00,CLR,BKN,0.00,WeatherDisplay:10.37,2013-04-16 07:18:00,
2013-04-16 09:20:00,68.2,36.4,30.26,SSW,210,5.0,9.0,31,0.00,CLR,BKN,0.00,WeatherDisplay:10.37,2013-04-16 07:20:00,
2013-04-16 09:23:00,56.7,41.6,30.29,ESE,112,3.8,3.8,57,0.00,CLR,BKN,0.00,WeatherDisplay:10.37,2013-04-16 07:23:00,
2013-04-16 09:25:00,68.2,36.4,30.26,SW,225,5.0,9.0,31,0.00,CLR,BKN,0.00,WeatherDisplay:10.37,2013-04-16 07:25:00,
2013-04-16 09:28:00,57.4,41.8,30.29,NE,45,5.8,5.8,56,0.00,CLR,BKN,0.00,WeatherDisplay:10.37,2013-04-16 07:28:00,
2013-04-16 09:30:00,68.7,36.8,30.26,SW,228,1.0,9.0,31,0.00,CLR,BKN,0.00,WeatherDisplay:10.37,2013-04-16 07:30:00,
2013-04-16 09:33:00,57.6,41.0,30.29,NE,45,4.6,4.6,54,0.00,CLR,BKN,0.00,WeatherDisplay:10.37,2013-04-16 07:33:00,
2013-04-16 09:35:00,68.7,36.8,30.26,WSW,249,1.0,2.0,31,0.00,CLR,BKN,0.00,WeatherDisplay:10.37,2013-04-16 07:35:00,
2013-04-16 09:38:00,58.1,41.5,30.29,NW,315,3.8,3.8,54,0.00,CLR,BKN,0.00,WeatherDisplay:10.37,2013-04-16 07:38:00,
2013-04-16 09:40:00,68.7,36.8,30.26,WNW,292,1.0,2.0,31,0.00,CLR,BKN,0.00,WeatherDisplay:10.37,2013-04-16 07:40:00,
2013-04-16 09:43:00,58.5,41.9,30.29,NE,45,4.6,0.0,54,0.00,CLR,BKN,0.00,WeatherDisplay:10.37,2013-04-16 07:43:00,
2013-04-16 09:45:00,68.5,35.9,30.26,SSW,213,5.0,7.0,30,0.00,CLR,BKN,0.00,WeatherDisplay:10.37,2013-04-16 07:45:00,
2013-04-16 09:48:00,59.0,41.9,30.29,SE,135,5.8,5.8,53,0.00,CLR,BKN,0.00,WeatherDisplay:10.37,2013-04-16 07:48:00,
2013-04-16 09:50:00,68.5,35.9,30.26,SE,138,5.0,7.0,30,0.00,CLR,BKN,0.00,WeatherDisplay:10.37,2013-04-16 07:50:00,
2013-04-16 09:53:00,59.5,41.9,30.29,South,180,4.6,4.6,52,0.00,CLR,BKN,0.00,WeatherDisplay:10.37,2013-04-16 07:53:00,
2013-04-16 09:55:00,68.5,35.9,30.26,SE,135,5.0,7.0,30,0.00,CLR,BKN,0.00,WeatherDisplay:10.37,2013-04-16 07:55:00,
2013-04-16 09:58:00,60.1,41.9,30.29,NE,45,6.0,6.0,51,0.00,CLR,BKN,0.00,WeatherDisplay:10.37,2013-04-16 07:58:00,
2013-04-16 10:00:00,68.2,31.0,30.25,SSE,152,6.0,8.0,25,0.00,CLR,BKN,0.00,WeatherDisplay:10.37,2013-04-16 08:00:00,
2013-04-16 10:03:00,60.4,41.7,30.29,West,270,3.5,3.5,50,0.00,CLR,BKN,0.00,WeatherDisplay:10.37,2013-04-16 08:03:00,
2013-04-16 10:05:00,68.2,31.0,30.25,SSW,206,6.0,8.0,25,0.00,CLR,BKN,0.00,WeatherDisplay:10.37,2013-04-16 08:05:00,
2013-04-16 10:08:00,61.3,39.8,30.29,NE,45,15.2,15.2,45,0.00,CLR,BKN,0.00,WeatherDisplay:10.37,2013-04-16 08:08:00,
2013-04-16 10:10:00,68.2,31.0,30.25,SW,225,6.0,8.0,25,0.00,CLR,BKN,0.00,WeatherDisplay:10.37,2013-04-16 08:10:00,
2013-04-16 10:13:00,62.1,40.5,30.29,East,90,8.1,8.1,45,0.00,CLR,BKN,0.00,WeatherDisplay:10.37,2013-04-16 08:13:00,
2013-04-16 10:15:00,68.4,32.1,30.25,SW,236,5.0,8.0,26,0.00,CLR,BKN,0.00,WeatherDisplay:10.37,2013-04-16 08:15:00,
2013-04-16 10:18:00,62.6,39.8,30.28,ENE,68,6.9,6.9,43,0.00,CLR,BKN,0.00,WeatherDisplay:10.37,2013-04-16 08:18:00,
2013-04-16 10:20:00,68.4,32.1,30.25,WNW,287,5.0,7.0,26,0.00,CLR,BKN,0.00,WeatherDisplay:10.37,2013-04-16 08:20:00,
2013-04-16 10:23:00,62.6,39.8,30.28,South,180,8.1,8.1,43,0.00,CLR,BKN,0.00,WeatherDisplay:10.37,2013-04-16 08:23:00,
2013-04-16 10:25:00,68.4,32.1,30.25,NW,315,5.0,7.0,26,0.00,CLR,BKN,0.00,WeatherDisplay:10.37,2013-04-16 08:25:00,
2013-04-16 10:28:00,63.3,39.2,30.29,East,90,8.1,8.1,41,0.00,CLR,BKN,0.00,WeatherDisplay:10.37,2013-04-16 08:28:00,
2013-04-16 10:30:00,68.2,31.0,30.24,WNW,303,5.0,7.0,25,0.00,CLR,BKN,0.00,WeatherDisplay:10.37,2013-04-16 08:30:00,
2013-04-16 10:33:00,63.5,39.4,30.28,SE,135,5.8,5.8,41,0.00,CLR,BKN,0.00,WeatherDisplay:10.37,2013-04-16 08:33:00,
2013-04-16 10:35:00,68.2,31.0,30.24,SSW,204,5.0,6.0,25,0.00,CLR,BKN,0.00,WeatherDisplay:10.37,2013-04-16 08:35:00,
2013-04-16 10:38:00,63.7,38.9,30.28,East,90,8.1,8.1,40,0.00,CLR,BKN,0.00,WeatherDisplay:10.37,2013-04-16 08:38:00,
2013-04-16 10:40:00,68.2,31.0,30.24,South,180,5.0,6.0,25,0.00,CLR,BKN,0.00,WeatherDisplay:10.37,2013-04-16 08:40:00,
2013-04-16 10:43:00,63.5,38.1,30.28,North,0,8.1,8.1,39,0.00,CLR,BKN,0.00,WeatherDisplay:10.37,2013-04-16 08:43:00,
2013-04-16 10:45:00,68.4,31.1,30.24,SSW,193,8.0,10.0,25,0.00,CLR,BKN,0.00,WeatherDisplay:10.37,2013-04-16 08:45:00,
2013-04-16 10:48:00,63.7,38.9,30.29,SE,135,4.6,4.6,40,0.00,CLR,BKN,0.00,WeatherDisplay:10.37,2013-04-16 08:48:00,
2013-04-16 10:53:00,64.0,39.2,30.28,East,90,8.1,8.1,40,0.00,CLR,BKN,0.00,WeatherDisplay:10.37,2013-04-16 08:53:00,
2013-04-16 10:58:00,64.6,41.0,30.29,SW,225,8.1,8.1,42,0.00,CLR,BKN,0.00,WeatherDisplay:10.37,2013-04-16 08:58:00,
2013-04-16 14:48:00,68.4,31.1,30.24,SW,225,10.4,10.4,25,0.00,CLR,BKN,0.00,WeatherDisplay:10.37,2013-04-16 12:48:00,
2013-04-16 14:53:00,68.7,32.4,30.23,SSE,158,8.3,8.3,26,0.00,CLR,BKN,0.00,WeatherDisplay:10.37,2013-04-16 12:53:00,
2013-04-16 14:58:00,69.1,32.7,30.23,West,270,8.1,8.1,26,0.00,CLR,BKN,0.00,WeatherDisplay:10.37,2013-04-16 12:58:00,
2013-04-16 15:03:00,69.3,32.9,30.22,South,180,8.3,8.3,26,0.00,CLR,BKN,0.00,WeatherDisplay:10.37,2013-04-16 13:03:00,
2013-04-16 15:08:00,69.4,31.0,30.22,SE,135,8.3,8.3,24,0.00,CLR,BKN,0.00,WeatherDisplay:10.37,2013-04-16 13:08:00,
2013-04-16 15:13:00,69.6,32.2,30.22,South,180,3.5,3.5,25,0.00,CLR,BKN,0.00,WeatherDisplay:10.37,2013-04-16 13:13:00,
2013-04-16 15:18:00,69.8,31.4,30.22,NW,315,9.2,9.2,24,0.00,CLR,BKN,0.00,WeatherDisplay:10.37,2013-04-16 13:18:00,
2013-04-16 15:23:00,70.0,28.2,30.22,South,180,9.2,9.2,21,0.00,CLR,BKN,0.00,WeatherDisplay:10.37,2013-04-16 13:23:00,
2013-04-16 15:28:00,70.0,29.4,30.22,SW,225,9.8,9.8,22,0.00,CLR,BKN,0.00,WeatherDisplay:10.37,2013-04-16 13:28:00,
2013-04-16 15:33:00,70.0,27.0,30.22,SW,225,12.1,12.1,20,0.00,CLR,BKN,0.00,WeatherDisplay:10.37,2013-04-16 13:33:00,
2013-04-16 15:38:00,70.0,27.0,30.22,South,180,6.9,6.9,20,0.00,CLR,BKN,0.00,WeatherDisplay:10.37,2013-04-16 13:38:00,
2013-04-16 15:43:00,70.2,27.2,30.22,NW,315,8.1,8.1,20,0.00,CLR,BKN,0.00,WeatherDisplay:10.37,2013-04-16 13:43:00,
2013-04-16 15:48:00,70.0,25.8,30.22,NW,315,5.8,5.8,19,0.00,CLR,BKN,0.00,WeatherDisplay:10.37,2013-04-16 13:48:00,
2013-04-16 15:53:00,69.8,26.9,30.21,South,180,6.9,6.9,20,0.00,CLR,BKN,0.00,WeatherDisplay:10.37,2013-04-16 13:53:00,
2013-04-16 15:58:00,70.2,27.2,30.22,SW,225,8.1,8.1,20,0.00,CLR,BKN,0.00,WeatherDisplay:10.37,2013-04-16 13:58:00,
2013-04-16 16:03:00,70.2,27.2,30.22,West,270,6.0,6.0,20,0.00,CLR,BKN,0.00,WeatherDisplay:10.37,2013-04-16 14:03:00,
2013-04-16 16:08:00,70.3,27.3,30.21,SW,225,8.1,8.1,20,0.00,CLR,BKN,0.00,WeatherDisplay:10.37,2013-04-16 14:08:00,
2013-04-16 16:13:00,70.2,25.9,30.21,SW,225,5.4,5.4,19,0.00,CLR,BKN,0.00,WeatherDisplay:10.37,2013-04-16 14:13:00,
2013-04-16 16:18:00,70.2,25.9,30.21,SW,225,9.2,9.2,19,0.00,CLR,BKN,0.00,WeatherDisplay:10.37,2013-04-16 14:18:00,
2013-04-16 16:23:00,70.0,27.0,30.21,West,270,3.8,3.8,20,0.00,CLR,BKN,0.00,WeatherDisplay:10.37,2013-04-16 14:23:00,
2013-04-16 16:28:00,70.2,27.2,30.21,South,180,8.1,8.1,20,0.00,CLR,BKN,0.00,WeatherDisplay:10.37,2013-04-16 14:28:00,
2013-04-16 16:33:00,70.2,27.2,30.21,SW,225,6.9,6.9,20,0.00,CLR,BKN,0.00,WeatherDisplay:10.37,2013-04-16 14:33:00,
2013-04-16 16:38:00,70.3,27.3,30.21,SW,225,8.1,8.1,20,0.00,CLR,BKN,0.00,WeatherDisplay:10.37,2013-04-16 14:38:00,
2013-04-16 16:43:00,70.7,26.4,30.21,SW,225,8.1,8.1,19,0.00,CLR,BKN,0.00,WeatherDisplay:10.37,2013-04-16 14:43:00,
2013-04-16 16:48:00,70.5,27.5,30.20,SSW,202,8.1,8.1,20,0.00,CLR,BKN,0.00,WeatherDisplay:10.37,2013-04-16 14:48:00,
2013-04-16 16:53:00,70.5,26.2,30.20,South,180,9.2,9.2,19,0.00,CLR,BKN,0.00,WeatherDisplay:10.37,2013-04-16 14:53:00,
2013-04-16 16:58:00,70.3,27.3,30.20,SW,225,8.1,8.1,20,0.00,CLR,BKN,0.00,WeatherDisplay:10.37,2013-04-16 14:58:00,
2013-04-16 17:03:00,70.3,27.3,30.20,SW,225,8.1,8.1,20,0.00,CLR,BKN,0.00,WeatherDisplay:10.37,2013-04-16 15:03:00,
2013-04-16 17:08:00,70.3,26.1,30.20,SW,225,8.1,8.1,19,0.00,CLR,BKN,0.00,WeatherDisplay:10.37,2013-04-16 15:08:00,
2013-04-16 17:13:00,70.3,26.1,30.20,SE,135,4.6,4.6,19,0.00,CLR,BKN,0.00,WeatherDisplay:10.37,2013-04-16 15:13:00,
2013-04-16 17:18:00,70.3,27.3,30.20,SW,225,5.8,5.8,20,0.00,CLR,BKN,0.00,WeatherDisplay:10.37,2013-04-16 15:18:00,
2013-04-16 17:23:00,70.2,28.4,30.20,South,180,6.0,6.0,21,0.00,CLR,BKN,0.00,WeatherDisplay:10.37,2013-04-16 15:23:00,
2013-04-16 17:28:00,70.0,28.2,30.19,West,270,6.9,6.9,21,0.00,CLR,BKN,0.00,WeatherDisplay:10.37,2013-04-16 15:28:00,
2013-04-16 17:33:00,70.0,27.0,30.20,SW,225,6.9,6.9,20,0.00,CLR,BKN,0.00,WeatherDisplay:10.37,2013-04-16 15:33:00,
2013-04-16 17:38:00,69.6,27.9,30.19,NW,315,5.8,5.8,21,0.00,CLR,BKN,0.00,WeatherDisplay:10.37,2013-04-16 15:38:00,
2013-04-16 17:43:00,69.4,27.8,30.19,West,270,9.2,9.2,21,0.00,CLR,BKN,0.00,WeatherDisplay:10.37,2013-04-16 15:43:00,
2013-04-16 17:48:00,69.1,27.5,30.19,West,270,6.9,6.9,21,0.00,CLR,BKN,0.00,WeatherDisplay:10.37,2013-04-16 15:48:00,
2013-04-16 17:53:00,69.1,27.5,30.19,SW,225,6.9,6.9,21,0.00,CLR,BKN,0.00,WeatherDisplay:10.37,2013-04-16 15:53:00,
2013-04-16 17:58:00,69.1,26.3,30.19,WNW,292,5.8,5.8,20,0.00,CLR,BKN,0.00,WeatherDisplay:10.37,2013-04-16 15:58:00,
2013-04-16 18:03:00,69.1,28.6,30.20,SW,225,5.8,5.8,22,0.00,CLR,BKN,0.00,WeatherDisplay:10.37,2013-04-16 16:03:00,
2013-04-16 18:08:00,68.9,28.5,30.19,SW,225,5.8,5.8,22,0.00,CLR,BKN,0.00,WeatherDisplay:10.37,2013-04-16 16:08:00,
2013-04-16 18:13:00,68.5,27.0,30.19,WSW,248,3.5,3.5,21,0.00,CLR,BKN,0.00,WeatherDisplay:10.37,2013-04-16 16:13:00,
2013-04-16 18:18:00,68.0,27.7,30.19,NW,315,2.3,2.3,22,0.00,CLR,BKN,0.00,WeatherDisplay:10.37,2013-04-16 16:18:00,
2013-04-16 18:23:00,67.5,27.2,30.20,SW,225,3.5,3.5,22,0.00,CLR,BKN,0.00,WeatherDisplay:10.37,2013-04-16 16:23:00,
2013-04-16 18:28:00,67.1,29.1,30.19,West,270,3.5,0.0,24,0.00,CLR,BKN,0.00,WeatherDisplay:10.37,2013-04-16 16:28:00,
2013-04-16 18:33:00,66.6,28.6,30.19,SW,225,2.3,2.3,24,0.00,CLR,BKN,0.00,WeatherDisplay:10.37,2013-04-16 16:33:00,
2013-04-16 18:38:00,66.4,28.5,30.19,NW,315,1.2,0.0,24,0.00,CLR,BKN,0.00,WeatherDisplay:10.37,2013-04-16 16:38:00,
2013-04-16 18:43:00,66.0,29.2,30.19,SW,225,3.5,3.5,25,0.00,CLR,BKN,0.00,WeatherDisplay:10.37,2013-04-16 16:43:00,
2013-04-16 18:48:00,65.7,30.7,30.19,East,90,3.5,3.5,27,0.00,CLR,BKN,0.00,WeatherDisplay:10.37,2013-04-16 16:48:00,
2013-04-16 18:53:00,65.3,33.0,30.20,SSE,158,5.4,5.4,30,0.00,CLR,BKN,0.00,WeatherDisplay:10.37,2013-04-16 16:53:00,
2013-04-16 18:58:00,64.9,34.3,30.19,NE,45,5.8,5.8,32,0.00,CLR,BKN,0.00,WeatherDisplay:10.37,2013-04-16 16:58:00,
2013-04-16 19:03:00,64.6,34.8,30.19,East,90,5.8,5.8,33,0.00,CLR,BKN,0.00,WeatherDisplay:10.37,2013-04-16 17:03:00,
2013-04-16 19:08:00,64.2,33.7,30.19,East,90,3.5,3.5,32,0.00,CLR,BKN,0.00,WeatherDisplay:10.37,2013-04-16 17:08:00,
2013-04-16 19:13:00,63.9,34.2,30.19,East,90,3.5,3.5,33,0.00,CLR,BKN,0.00,WeatherDisplay:10.37,2013-04-16 17:13:00,
2013-04-16 19:18:00,63.3,35.2,30.20,SE,135,3.5,3.5,35,0.00,CLR,BKN,0.00,WeatherDisplay:10.37,2013-04-16 17:18:00,
2013-04-16 19:23:00,62.6,35.9,30.20,SE,135,3.5,3.5,37,0.00,CLR,BKN,0.00,WeatherDisplay:10.37,2013-04-16 17:23:00,
2013-04-16 19:28:00,62.1,36.8,30.20,East,90,3.5,3.5,39,0.00,CLR,BKN,0.00,WeatherDisplay:10.37,2013-04-16 17:28:00,
2013-04-16 19:33:00,61.5,36.3,30.20,ESE,112,3.5,3.5,39,0.00,CLR,BKN,0.00,WeatherDisplay:10.37,2013-04-16 17:33:00,
2013-04-16 19:38:00,61.0,36.5,30.21,ESE,112,3.5,3.5,40,0.00,CLR,BKN,0.00,WeatherDisplay:10.37,2013-04-16 17:38:00,
2013-04-16 19:43:00,60.4,37.2,30.20,SE,135,3.5,3.5,42,0.00,CLR,BKN,0.00,WeatherDisplay:10.37,2013-04-16 17:43:00,
2013-04-16 19:48:00,60.1,36.9,30.21,ESE,112,3.5,3.5,42,0.00,CLR,BKN,0.00,WeatherDisplay:10.37,2013-04-16 17:48:00,
2013-04-16 19:53:00,59.5,37.0,30.20,East,90,2.2,2.2,43,0.00,CLR,BKN,0.00,WeatherDisplay:10.37,2013-04-16 17:53:00,
2013-04-16 19:58:00,59.0,36.5,30.20,SE,135,3.8,3.8,43,0.00,CLR,BKN,0.00,WeatherDisplay:10.37,2013-04-16 17:58:00,
2013-04-16 20:03:00,58.5,37.2,30.21,East,90,3.5,3.5,45,0.00,CLR,BKN,0.00,WeatherDisplay:10.37,2013-04-16 18:03:00,
2013-04-16 20:08:00,58.1,36.9,30.21,SE,135,3.5,3.5,45,0.00,CLR,BKN,0.00,WeatherDisplay:10.37,2013-04-16 18:08:00,
2013-04-16 20:13:00,57.6,36.4,30.21,East,90,5.4,5.4,45,0.00,CLR,BKN,0.00,WeatherDisplay:10.37,2013-04-16 18:13:00,
2013-04-16 20:18:00,57.2,36.6,30.21,SE,135,3.5,3.5,46,0.00,CLR,BKN,0.00,WeatherDisplay:10.37,2013-04-16 18:18:00,
2013-04-16 20:23:00,57.0,37.0,30.21,East,90,3.5,3.5,47,0.00,CLR,BKN,0.00,WeatherDisplay:10.37,2013-04-16 18:23:00,
2013-04-16 20:28:00,56.7,36.6,30.21,SE,135,3.1,3.1,47,0.00,CLR,BKN,0.00,WeatherDisplay:10.37,2013-04-16 18:28:00,
2013-04-16 20:33:00,56.3,36.3,30.22,East,90,3.5,3.5,47,0.00,CLR,BKN,0.00,WeatherDisplay:10.37,2013-04-16 18:33:00,
2013-04-16 20:38:00,55.9,36.5,30.21,ESE,112,3.5,3.5,48,0.00,CLR,BKN,0.00,WeatherDisplay:10.37,2013-04-16 18:38:00,
2013-04-16 20:43:00,55.6,36.7,30.21,SE,135,2.3,2.3,49,0.00,CLR,BKN,0.00,WeatherDisplay:10.37,2013-04-16 18:43:00,
2013-04-16 20:48:00,55.0,36.2,30.22,SE,135,1.6,1.6,49,0.00,CLR,BKN,0.00,WeatherDisplay:10.37,2013-04-16 18:48:00,
2013-04-16 20:53:00,54.7,35.9,30.22,SE,135,1.6,1.6,49,0.00,CLR,BKN,0.00,WeatherDisplay:10.37,2013-04-16 18:53:00,
2013-04-16 20:58:00,54.3,36.1,30.22,West,270,3.5,0.0,50,0.00,CLR,BKN,0.00,WeatherDisplay:10.37,2013-04-16 18:58:00,
2013-04-16 21:03:00,54.3,36.6,30.22,West,270,1.6,1.6,51,0.00,CLR,BKN,0.00,WeatherDisplay:10.37,2013-04-16 19:03:00,
2013-04-16 21:08:00,54.0,36.2,30.22,SE,135,2.3,2.3,51,0.00,CLR,BKN,0.00,WeatherDisplay:10.37,2013-04-16 19:08:00,
2013-04-16 21:13:00,53.8,36.6,30.22,SE,135,3.5,3.5,52,0.00,CLR,BKN,0.00,WeatherDisplay:10.37,2013-04-16 19:13:00,
2013-04-16 21:18:00,53.6,36.9,30.22,West,270,3.1,3.1,53,0.00,CLR,BKN,0.00,WeatherDisplay:10.37,2013-04-16 19:18:00,
2013-04-16 21:23:00,53.4,37.6,30.22,South,180,2.3,2.3,55,0.00,CLR,BKN,0.00,WeatherDisplay:10.37,2013-04-16 19:23:00,
2013-04-16 21:28:00,53.2,37.5,30.22,SW,225,3.5,3.5,55,0.00,CLR,BKN,0.00,WeatherDisplay:10.37,2013-04-16 19:28:00,
2013-04-16 21:33:00,53.1,37.3,30.22,West,270,1.6,1.6,55,0.00,CLR,BKN,0.00,WeatherDisplay:10.37,2013-04-16 19:33:00,
2013-04-16 21:38:00,52.7,37.4,30.22,SW,225,3.8,3.8,56,0.00,CLR,BKN,0.00,WeatherDisplay:10.37,2013-04-16 19:38:00,
2013-04-16 21:43:00,52.7,37.9,30.22,West,270,3.5,3.5,57,0.00,CLR,BKN,0.00,WeatherDisplay:10.37,2013-04-16 19:43:00,
2013-04-16 21:48:00,52.9,37.6,30.22,SW,225,3.5,3.5,56,0.00,CLR,BKN,0.00,WeatherDisplay:10.37,2013-04-16 19:48:00,
2013-04-16 21:53:00,53.2,37.9,30.22,SE,135,3.5,3.5,56,0.00,CLR,BKN,0.00,WeatherDisplay:10.37,2013-04-16 19:53:00,
2013-04-16 21:58:00,53.1,37.8,30.22,South,180,3.5,3.5,56,0.00,CLR,BKN,0.00,WeatherDisplay:10.37,2013-04-16 19:58:00,
2013-04-16 22:03:00,52.9,37.6,30.22,East,90,1.6,1.6,56,0.00,CLR,BKN,0.00,WeatherDisplay:10.37,2013-04-16 20:03:00,
2013-04-16 22:08:00,52.5,37.7,30.22,East,90,2.3,2.3,57,0.00,CLR,BKN,0.00,WeatherDisplay:10.37,2013-04-16 20:08:00,
2013-04-16 22:13:00,52.2,37.8,30.22,South,180,1.2,0.0,58,0.00,CLR,BKN,0.00,WeatherDisplay:10.37,2013-04-16 20:13:00,
2013-04-16 22:18:00,51.8,37.9,30.22,South,180,1.6,0.0,59,0.00,CLR,BKN,0.00,WeatherDisplay:10.37,2013-04-16 20:18:00,
2013-04-16 22:23:00,51.6,38.2,30.22,North,0,2.2,2.2,60,0.00,CLR,BKN,0.00,WeatherDisplay:10.37,2013-04-16 20:23:00,
2013-04-16 22:28:00,51.4,38.4,30.22,ENE,68,1.6,1.6,61,0.00,CLR,BKN,0.00,WeatherDisplay:10.37,2013-04-16 20:28:00,
2013-04-16 22:33:00,51.1,38.1,30.23,NE,45,1.2,0.0,61,0.00,CLR,BKN,0.00,WeatherDisplay:10.37,2013-04-16 20:33:00,
2013-04-16 22:38:00,50.5,37.6,30.22,NW,315,1.2,0.0,61,0.00,CLR,BKN,0.00,WeatherDisplay:10.37,2013-04-16 20:38:00,
2013-04-16 22:43:00,50.4,37.8,30.22,SE,135,1.6,1.6,62,0.00,CLR,BKN,0.00,WeatherDisplay:10.37,2013-04-16 20:43:00,
2013-04-16 22:48:00,50.2,38.1,30.23,East,90,2.3,2.3,63,0.00,CLR,BKN,0.00,WeatherDisplay:10.37,2013-04-16 20:48:00,
2013-04-16 22:53:00,49.8,38.1,30.23,SE,135,2.3,2.3,64,0.00,CLR,BKN,0.00,WeatherDisplay:10.37,2013-04-16 20:53:00,
2013-04-16 22:58:00,49.5,37.8,30.23,SE,135,3.5,3.5,64,0.00,CLR,BKN,0.00,WeatherDisplay:10.37,2013-04-16 20:58:00,
2013-04-16 23:03:00,49.3,38.0,30.22,ESE,112,3.5,3.5,65,0.00,CLR,BKN,0.00,WeatherDisplay:10.37,2013-04-16 21:03:00,
2013-04-16 23:08:00,49.1,37.8,30.23,East,90,3.5,3.5,65,0.00,CLR,BKN,0.00,WeatherDisplay:10.37,2013-04-16 21:08:00,
2013-04-16 23:13:00,48.7,37.5,30.23,East,90,1.2,0.0,65,0.00,CLR,BKN,0.00,WeatherDisplay:10.37,2013-04-16 21:13:00,
2013-04-16 23:18:00,48.4,37.2,30.23,NW,315,0.0,0.0,65,0.00,CLR,BKN,0.00,WeatherDisplay:10.37,2013-04-16 21:18:00,
2013-04-16 23:23:00,48.2,37.0,30.23,South,180,1.2,0.0,65,0.00,CLR,BKN,0.00,WeatherDisplay:10.37,2013-04-16 21:23:00,
2013-04-16 23:28:00,47.8,37.4,30.23,NW,315,2.3,2.3,67,0.00,CLR,BKN,0.00,WeatherDisplay:10.37,2013-04-16 21:28:00,
2013-04-16 23:33:00,47.8,37.8,30.23,West,270,1.2,0.0,68,0.00,CLR,BKN,0.00,WeatherDisplay:10.37,2013-04-16 21:33:00,
2013-04-16 23:38:00,47.5,37.4,30.23,East,90,1.2,0.0,68,0.00,CLR,BKN,0.00,WeatherDisplay:10.37,2013-04-16 21:38:00,
2013-04-16 23:43:00,47.3,37.6,30.23,NW,315,1.6,1.6,69,0.00,CLR,BKN,0.00,WeatherDisplay:10.37,2013-04-16 21:43:00,
2013-04-16 23:48:00,47.1,37.5,30.23,NW,315,1.2,0.0,69,0.00,CLR,BKN,0.00,WeatherDisplay:10.37,2013-04-16 21:48:00,
2013-04-16 23:53:00,46.9,37.3,30.23,SE,135,2.3,2.3,69,0.00,CLR,BKN,0.00,WeatherDisplay:10.37,2013-04-16 21:53:00,
2013-04-16 23:58:00,46.6,37.3,30.24,East,90,2.3,0.0,70,0.00,CLR,BKN,0.00,WeatherDisplay:10.37,2013-04-16 21:58:00,